Time;durP1;ratioP1;P1;durP2;ratioP2;P2;SDS_P1;SDS_P2;PMS_P1;PMS_P2;Temp;Humidity;BMP_temperature;BMP_pressure;BME280_temperature;BME280_humidity;BME280_pressure;Samples;Min_cycle;Max_cycle;Signal;HPM_P1;HPM_P2
2023/06/01 03:52:48;;;;;;;15.50;4.70;;;;;;;10.61;99.97;99616.58;102483;1292;615599;-70
2023/06/01 03:55:35;;;;;;;14.90;4.80;;;;;;;10.73;99.57;99608.57;105412;1271;59693;-71
2023/06/01 03:58:27;;;;;;;7.60;3.40;;;;;;;10.85;98.35;99605.11;105746;1258;61918;-69
2023/06/01 04:01:19;;;;;;;13.60;4.30;;;;;;;10.97;97.86;99609.04;105475;1264;70550;-71
2023/06/01 04:04:08;;;;;;;13.50;4.00;;;;;;;11.09;96.99;99603.96;105592;1260;66806;-71
2023/06/01 04:07:00;;;;;;;11.00;4.20;;;;;;;11.20;96.06;99595.14;106015;1253;231357;-70
2023/06/01 04:09:48;;;;;;;13.70;4.50;;;;;;;11.33;95.32;99594.71;105877;1260;59431;-69
2023/06/01 04:12:35;;;;;;;13.60;4.40;;;;;;;11.45;94.23;99593.00;105915;1251;61922;-74
2023/06/01 04:15:24;;;;;;;12.20;3.90;;;;;;;11.57;93.53;99594.41;105961;1253;68992;-68
2023/06/01 04:18:11;;;;;;;13.10;3.90;;;;;;;11.69;92.88;99591.73;106137;1255;67860;-70
2023/06/01 04:21:12;;;;;;;10.40;3.90;;;;;;;11.82;91.86;99584.88;105688;1260;72674;-69
2023/06/01 04:23:59;;;;;;;15.40;4.50;;;;;;;11.96;90.86;99585.95;107828;1253;59681;-67
2023/06/01 04:26:47;;;;;;;13.20;4.00;;;;;;;12.11;90.34;99583.30;106952;1256;59362;-68
2023/06/01 04:29:39;;;;;;;12.10;3.20;;;;;;;12.30;89.12;99578.80;107172;1254;71559;-71
2023/06/01 04:32:27;;;;;;;12.50;4.10;;;;;;;12.50;88.17;99574.65;107368;1257;68043;-70
2023/06/01 04:35:14;;;;;;;12.00;3.90;;;;;;;12.80;86.78;99582.46;106646;1259;72700;-69
2023/06/01 04:38:04;;;;;;;12.90;3.70;;;;;;;13.15;84.94;99580.21;106132;1254;59392;-68
2023/06/01 04:40:55;;;;;;;15.90;4.00;;;;;;;13.54;82.49;99579.36;106939;1254;61599;-68
2023/06/01 04:43:51;;;;;;;13.60;4.20;;;;;;;14.01;80.72;99578.77;105751;1255;71190;-65
2023/06/01 04:46:39;;;;;;;13.50;4.20;;;;;;;14.67;77.64;99577.95;105872;1251;66499;-68
2023/06/01 04:49:28;;;;;;;12.10;3.60;;;;;;;15.35;75.66;99577.27;105562;1254;71812;-66
2023/06/01 04:52:16;;;;;;;11.50;3.60;;;;;;;16.04;71.67;99574.34;105661;1258;59501;-71
2023/06/01 04:55:04;;;;;;;12.60;4.00;;;;;;;16.69;68.74;99570.81;105662;1253;60434;-65
2023/06/01 04:57:53;;;;;;;13.60;3.80;;;;;;;17.25;65.71;99569.80;105610;1257;69220;-68
2023/06/01 05:00:40;;;;;;;14.80;3.80;;;;;;;17.81;63.26;99568.56;105664;1260;66593;-68
2023/06/01 05:03:26;;;;;;;12.20;3.90;;;;;;;18.18;60.81;99553.70;105680;1254;71614;-69
2023/06/01 05:06:14;;;;;;;11.30;3.40;;;;;;;18.67;58.84;99565.88;105864;1258;59243;-69
2023/06/01 05:15:13;;;;;;;11.90;3.60;;;;;;;19.75;54.55;99560.36;102959;1288;599639;-71
2023/06/01 05:18:03;;;;;;;13.70;4.00;;;;;;;20.18;52.82;99561.76;104824;1270;59314;-70
2023/06/01 05:20:51;;;;;;;11.70;3.80;;;;;;;20.79;51.19;99563.69;105375;1258;59350;-68
2023/06/01 05:23:39;;;;;;;10.60;3.60;;;;;;;21.34;49.35;99564.66;105362;1260;69374;-68
2023/06/01 05:26:27;;;;;;;11.60;3.40;;;;;;;21.99;47.71;99564.40;105438;1258;66551;-67
2023/06/01 05:29:18;;;;;;;14.30;3.60;;;;;;;22.59;45.89;99554.73;105754;1259;213677;-67
2023/06/01 05:32:08;;;;;;;12.20;3.20;;;;;;;23.13;44.06;99545.49;106414;1256;59143;-71
2023/06/01 05:34:58;;;;;;;12.40;3.90;;;;;;;23.46;42.71;99550.59;105478;1256;59232;-70
2023/06/01 05:37:47;;;;;;;12.80;3.40;;;;;;;23.89;42.23;99547.19;106011;1260;72310;-71
2023/06/01 05:40:36;;;;;;;12.50;3.70;;;;;;;24.25;40.68;99549.10;105645;1260;68078;-69
2023/06/01 05:43:24;;;;;;;10.20;3.70;;;;;;;24.74;39.78;99548.69;105757;1257;72734;-66
2023/06/01 05:46:14;;;;;;;12.40;3.60;;;;;;;24.83;38.67;99547.39;105622;1253;59342;-73
2023/06/01 05:49:04;;;;;;;14.90;3.70;;;;;;;25.02;38.02;99547.76;105581;1254;59681;-71
2023/06/01 05:51:53;;;;;;;12.20;3.20;;;;;;;25.30;37.60;99549.11;105689;1257;71248;-75
2023/06/01 05:54:42;;;;;;;13.90;3.60;;;;;;;25.54;36.62;99548.87;105669;1253;66423;-74
2023/06/01 05:57:31;;;;;;;10.30;3.30;;;;;;;25.89;36.26;99550.89;105503;1253;72251;-73
2023/06/01 06:00:20;;;;;;;8.50;3.10;;;;;;;26.03;35.54;99554.09;106455;1254;59224;-71
2023/06/01 06:03:08;;;;;;;11.50;2.90;;;;;;;26.17;34.97;99559.59;105739;1257;59371;-76
2023/06/01 06:05:56;;;;;;;9.10;2.90;;;;;;;26.55;34.47;99556.14;105759;1253;71470;-72
2023/06/01 06:08:45;;;;;;;12.10;3.00;;;;;;;26.81;33.94;99548.52;105873;1254;66493;-73
2023/06/01 06:11:34;;;;;;;10.60;3.00;;;;;;;27.17;33.70;99547.15;105696;1253;71024;-74
2023/06/01 06:14:22;;;;;;;8.60;2.60;;;;;;;27.55;33.03;99548.48;106106;1260;59270;-76
2023/06/01 06:17:11;;;;;;;10.20;3.00;;;;;;;27.95;32.53;99551.67;105762;1257;59249;-73
2023/06/01 06:19:59;;;;;;;11.00;2.70;;;;;;;28.42;31.48;99553.74;105830;1256;71522;-74
2023/06/01 06:22:52;;;;;;;9.30;2.90;;;;;;;28.77;30.78;99551.98;105650;1260;68089;-75
2023/06/01 06:25:42;;;;;;;9.90;2.70;;;;;;;29.05;30.04;99554.77;106222;1256;72712;-74
2023/06/01 06:28:31;;;;;;;8.60;2.50;;;;;;;28.94;29.30;99558.85;105614;1253;59359;-75
2023/06/01 06:31:20;;;;;;;10.20;2.70;;;;;;;28.84;29.46;99555.58;105732;1257;60382;-71
2023/06/01 06:34:08;;;;;;;9.20;2.80;;;;;;;28.96;29.64;99555.69;105478;1253;72977;-72
2023/06/01 06:36:57;;;;;;;10.50;2.50;;;;;;;29.28;29.18;99562.20;105609;1258;67842;-72
2023/06/01 06:39:45;;;;;;;11.90;2.70;;;;;;;29.47;28.66;99563.82;105587;1253;71792;-67
2023/06/01 06:42:33;;;;;;;9.00;2.30;;;;;;;29.74;28.21;99565.63;105607;1253;59282;-70
2023/06/01 06:45:24;;;;;;;9.30;2.50;;;;;;;29.78;27.32;99560.31;105428;1258;60210;-71
2023/06/01 06:48:12;;;;;;;8.40;2.20;;;;;;;29.51;27.63;99555.90;106076;1253;72034;-71
2023/06/01 06:51:03;;;;;;;8.00;2.20;;;;;;;29.79;27.53;99559.28;105378;1253;67939;-68
2023/06/01 06:53:52;;;;;;;10.40;2.20;;;;;;;29.99;27.09;99564.20;105893;1253;73225;-69
2023/06/01 06:56:40;;;;;;;11.50;2.40;;;;;;;30.11;26.95;99563.98;105652;1254;59515;-70
2023/06/01 06:59:28;;;;;;;9.40;2.50;;;;;;;30.25;26.61;99564.59;105425;1254;60808;-70
2023/06/01 07:02:16;;;;;;;7.70;2.40;;;;;;;30.19;26.74;99561.09;105641;1254;71957;-69
2023/06/01 07:05:05;;;;;;;11.10;2.90;;;;;;;30.37;26.67;99563.76;105299;1254;68492;-67
2023/06/01 07:07:53;;;;;;;8.00;2.60;;;;;;;30.33;26.18;99565.92;105505;1258;72442;-68
2023/06/01 07:10:44;;;;;;;8.50;2.10;;;;;;;30.40;26.09;99562.91;105339;1255;59254;-68
2023/06/01 07:13:32;;;;;;;10.80;2.70;;;;;;;30.49;25.96;99557.77;105234;1264;60355;-69
2023/06/01 07:16:21;;;;;;;8.80;2.50;;;;;;;30.42;25.33;99562.21;105565;1259;72884;-67
2023/06/01 07:19:09;;;;;;;8.30;2.10;;;;;;;30.20;25.67;99563.91;105268;1264;68265;-68
2023/06/01 07:21:58;;;;;;;7.50;1.90;;;;;;;29.87;25.98;99565.73;105281;1260;73108;-69
2023/06/01 07:24:47;;;;;;;9.00;2.40;;;;;;;29.57;26.17;99558.34;105396;1259;59343;-68
2023/06/01 07:27:37;;;;;;;8.70;3.10;;;;;;;29.39;26.82;99556.09;105421;1260;60029;-68
2023/06/01 07:30:25;;;;;;;9.60;2.20;;;;;;;29.38;26.88;99554.83;105282;1263;72180;-69
2023/06/01 07:33:14;;;;;;;9.70;2.30;;;;;;;29.53;26.90;99554.88;105342;1260;67324;-67
2023/06/01 07:36:06;;;;;;;8.10;2.10;;;;;;;29.56;27.09;99552.13;105391;1259;72551;-70
2023/06/01 07:38:54;;;;;;;8.50;2.80;;;;;;;30.00;26.88;99555.33;105246;1260;59363;-68
2023/06/01 07:41:46;;;;;;;10.00;2.40;;;;;;;30.22;26.46;99554.42;105255;1265;60247;-66
2023/06/01 07:44:34;;;;;;;10.40;2.30;;;;;;;30.23;26.20;99560.73;105441;1254;71805;-66
2023/06/01 07:47:25;;;;;;;8.90;2.40;;;;;;;30.24;26.18;99556.80;105560;1254;67936;-66
2023/06/01 07:50:13;;;;;;;9.00;2.40;;;;;;;30.55;26.08;99558.55;104809;1260;1003037;-67
2023/06/01 07:53:02;;;;;;;8.30;2.50;;;;;;;30.57;25.84;99555.76;105594;1256;59280;-64
2023/06/01 07:55:51;;;;;;;11.00;2.60;;;;;;;30.62;25.99;99550.41;105619;1258;60161;-68
2023/06/01 07:58:41;;;;;;;10.60;2.30;;;;;;;30.59;25.90;99553.24;105683;1255;70830;-64
2023/06/01 08:01:30;;;;;;;9.10;2.40;;;;;;;30.54;25.65;99556.17;105613;1259;67264;-69
2023/06/01 08:04:20;;;;;;;7.40;2.10;;;;;;;30.56;25.50;99555.85;105739;1258;73214;-68
2023/06/01 08:07:12;;;;;;;8.20;2.20;;;;;;;30.77;25.27;99553.63;105529;1262;59457;-68
2023/06/01 08:10:02;;;;;;;8.90;2.30;;;;;;;31.12;25.25;99551.48;105577;1258;59518;-69
2023/06/01 08:12:52;;;;;;;8.10;1.90;;;;;;;31.49;24.89;99551.27;105842;1254;72856;-69
2023/06/01 08:15:42;;;;;;;8.30;1.90;;;;;;;31.44;24.46;99550.71;105673;1254;67236;-69
2023/06/01 08:18:31;;;;;;;9.40;2.50;;;;;;;31.58;24.26;99553.74;105746;1255;73020;-69
2023/06/01 08:21:20;;;;;;;8.40;2.10;;;;;;;31.61;24.06;99553.14;105720;1256;59379;-71
2023/06/01 08:24:08;;;;;;;8.50;2.20;;;;;;;31.57;23.84;99547.53;105690;1256;60924;-71
2023/06/01 08:26:57;;;;;;;8.00;1.90;;;;;;;31.18;24.04;99551.01;105410;1255;72043;-71
2023/06/01 08:29:47;;;;;;;8.10;2.00;;;;;;;31.27;24.34;99559.13;105719;1258;67661;-68
2023/06/01 08:32:35;;;;;;;8.00;1.80;;;;;;;31.27;24.06;99550.61;105443;1254;72698;-71
2023/06/01 08:35:25;;;;;;;7.70;2.00;;;;;;;31.43;23.98;99549.89;105603;1254;59303;-69
2023/06/01 08:38:13;;;;;;;8.70;2.40;;;;;;;31.55;23.71;99545.75;105994;1254;59327;-70
2023/06/01 08:41:12;;;;;;;7.20;1.80;;;;;;;31.46;23.56;99549.66;105633;1254;71187;-69
2023/06/01 08:44:06;;;;;;;9.10;2.30;;;;;;;31.40;23.31;99548.99;105791;1254;66540;-69
2023/06/01 08:46:55;;;;;;;8.40;2.10;;;;;;;31.46;23.28;99547.59;105556;1253;71301;-69
2023/06/01 08:49:46;;;;;;;10.30;2.10;;;;;;;31.45;23.31;99542.42;105667;1258;59329;-69
2023/06/01 08:52:36;;;;;;;9.00;2.10;;;;;;;31.50;23.22;99534.40;105499;1257;59199;-68
2023/06/01 08:55:25;;;;;;;8.80;2.20;;;;;;;31.62;22.86;99535.83;105744;1256;72022;-69
2023/06/01 08:58:14;;;;;;;6.80;1.60;;;;;;;31.76;22.92;99533.50;105873;1256;67328;-69
2023/06/01 09:01:03;;;;;;;7.80;1.90;;;;;;;32.18;22.98;99534.92;105456;1254;71900;-69
2023/06/01 09:03:52;;;;;;;9.00;1.80;;;;;;;32.51;22.53;99534.66;105596;1258;59361;-65
2023/06/01 09:06:42;;;;;;;8.00;2.10;;;;;;;32.62;22.53;99539.73;105885;1258;61964;-65
2023/06/01 09:09:32;;;;;;;8.00;2.00;;;;;;;32.17;22.31;99536.92;105592;1254;71002;-69
2023/06/01 09:12:24;;;;;;;6.90;1.90;;;;;;;32.18;22.53;99533.48;105561;1255;67932;-66
2023/06/01 09:15:17;;;;;;;7.40;2.10;;;;;;;32.35;22.32;99527.14;105846;1258;72780;-67
2023/06/01 09:18:13;;;;;;;8.30;2.00;;;;;;;32.43;22.15;99520.26;105580;1254;59312;-70
2023/06/01 09:21:17;;;;;;;8.70;2.20;;;;;;;32.66;22.10;99526.45;105345;1254;62110;-68
2023/06/01 09:24:22;;;;;;;9.60;2.40;;;;;;;32.51;21.92;99532.08;105848;1256;70374;-67
2023/06/01 09:27:11;;;;;;;7.80;2.40;;;;;;;32.15;22.05;99529.73;105637;1254;66821;-71
2023/06/01 09:30:00;;;;;;;7.00;2.00;;;;;;;32.17;21.99;99530.77;105642;1256;73264;-66
2023/06/01 09:32:52;;;;;;;8.30;1.90;;;;;;;31.92;22.30;99528.73;105667;1260;59581;-67
2023/06/01 09:35:44;;;;;;;8.50;2.00;;;;;;;31.72;22.80;99529.97;105679;1257;59459;-67
2023/06/01 09:38:33;;;;;;;9.00;2.30;;;;;;;31.56;23.43;99527.95;105515;1256;72038;-69
2023/06/01 09:41:22;;;;;;;9.40;3.80;;;;;;;31.43;23.39;99524.16;105631;1261;68521;-65
2023/06/01 09:44:13;;;;;;;10.30;2.40;;;;;;;31.43;23.73;99514.81;105932;1257;74201;-69
2023/06/01 09:47:09;;;;;;;8.70;1.70;;;;;;;31.48;22.83;99523.45;105728;1258;59170;-68
2023/06/01 09:50:03;;;;;;;8.00;2.00;;;;;;;31.29;23.62;99520.54;105979;1254;60106;-68
2023/06/01 09:53:00;;;;;;;7.50;1.80;;;;;;;31.46;23.34;99523.06;105473;1258;69838;-68
2023/06/01 09:56:01;;;;;;;8.40;1.90;;;;;;;31.42;23.64;99521.68;105581;1254;67879;-69
2023/06/01 09:58:58;;;;;;;6.60;1.90;;;;;;;31.37;23.17;99518.70;105966;1260;73256;-66
2023/06/01 10:01:52;;;;;;;8.10;1.90;;;;;;;31.43;23.60;99525.09;106242;1254;59276;-67
2023/06/01 10:04:49;;;;;;;8.60;2.00;;;;;;;31.48;23.66;99524.55;106014;1254;62047;-65
2023/06/01 10:07:38;;;;;;;10.40;1.90;;;;;;;31.32;23.52;99524.56;106001;1256;71637;-70
2023/06/01 10:10:26;;;;;;;10.10;2.00;;;;;;;31.32;23.43;99532.27;105897;1258;67099;-66
2023/06/01 10:13:15;;;;;;;8.40;2.00;;;;;;;31.35;23.10;99532.15;105578;1256;73155;-68
2023/06/01 10:16:04;;;;;;;11.30;2.40;;;;;;;31.57;23.04;99530.75;106070;1256;59324;-70
2023/06/01 10:18:53;;;;;;;8.80;2.30;;;;;;;31.57;23.45;99529.87;105772;1258;60189;-69
2023/06/01 10:21:44;;;;;;;6.90;2.00;;;;;;;31.34;23.74;99530.95;105530;1254;72416;-68
2023/06/01 10:24:34;;;;;;;8.80;2.10;;;;;;;31.39;23.71;99527.77;105977;1256;68238;-69
2023/06/01 10:27:30;;;;;;;8.80;2.20;;;;;;;31.71;23.29;99527.27;105926;1257;73210;-69
2023/06/01 10:30:18;;;;;;;9.50;2.20;;;;;;;31.95;23.28;99529.33;105567;1258;59290;-70
2023/06/01 10:33:08;;;;;;;8.70;2.20;;;;;;;32.12;23.46;99526.37;105859;1259;60568;-70
2023/06/01 10:35:56;;;;;;;8.60;2.30;;;;;;;31.67;23.88;99525.61;105732;1254;72546;-67
2023/06/01 10:38:44;;;;;;;8.50;2.30;;;;;;;31.49;24.31;99526.04;105802;1256;68585;-70
2023/06/01 10:41:32;;;;;;;10.30;2.20;;;;;;;30.55;25.30;99537.65;105545;1256;73200;-72
2023/06/01 10:44:39;;;;;;;9.30;2.10;;;;;;;30.22;25.70;99533.13;105789;1256;59327;-71
2023/06/01 10:47:34;;;;;;;10.60;2.10;;;;;;;30.31;25.85;99535.66;105902;1257;59429;-70
2023/06/01 10:50:22;;;;;;;8.40;2.30;;;;;;;29.72;26.64;99537.11;105828;1254;72591;-69
2023/06/01 10:53:23;;;;;;;10.20;2.50;;;;;;;30.15;25.70;99541.35;105636;1256;67753;-69
2023/06/01 10:56:27;;;;;;;9.10;2.40;;;;;;;30.53;25.35;99542.04;105940;1254;74381;-70
2023/06/01 10:59:15;;;;;;;9.00;2.50;;;;;;;30.47;25.70;99541.29;105868;1258;59253;-68
2023/06/01 11:02:09;;;;;;;10.90;2.30;;;;;;;30.94;25.05;99531.75;105678;1256;61821;-68
2023/06/01 11:05:36;;;;;;;10.60;2.50;;;;;;;31.12;25.04;99535.96;105725;1258;71967;-69
2023/06/01 11:08:28;;;;;;;8.80;2.60;;;;;;;29.81;26.74;99540.98;105734;1256;67662;-69
2023/06/01 11:11:16;;;;;;;10.60;2.50;;;;;;;28.95;27.73;99542.59;105686;1258;73516;-68
2023/06/01 11:14:11;;;;;;;9.30;2.50;;;;;;;28.04;29.12;99546.41;105693;1258;59665;-69
2023/06/01 11:17:28;;;;;;;9.90;2.50;;;;;;;27.77;29.67;99549.17;105893;1258;59962;-70
2023/06/01 11:20:20;;;;;;;10.20;2.80;;;;;;;27.56;29.91;99551.33;105703;1255;72478;-70
2023/06/01 11:23:12;;;;;;;8.10;2.40;;;;;;;27.41;30.23;99553.40;105623;1255;67851;-66
2023/06/01 11:26:06;;;;;;;8.30;2.50;;;;;;;27.39;30.52;99551.18;105909;1258;72943;-69
2023/06/01 11:29:07;;;;;;;10.30;2.60;;;;;;;27.37;30.63;99559.41;105804;1258;59565;-67
2023/06/01 11:32:00;;;;;;;7.60;2.20;;;;;;;27.26;30.81;99560.38;105661;1259;62391;-68
2023/06/01 11:34:48;;;;;;;9.30;2.50;;;;;;;26.84;30.83;99570.73;105811;1258;72302;-67
2023/06/01 11:37:37;;;;;;;10.90;2.80;;;;;;;26.15;31.58;99574.20;105677;1259;66297;-69
2023/06/01 11:40:25;;;;;;;9.60;2.60;;;;;;;25.71;32.63;99577.17;105977;1257;74126;-69
2023/06/01 11:43:31;;;;;;;11.40;3.10;;;;;;;25.22;33.28;99573.33;105518;1256;59170;-69
2023/06/01 11:46:19;;;;;;;9.70;2.60;;;;;;;24.95;33.92;99579.16;105693;1255;60177;-70
2023/06/01 11:49:10;;;;;;;9.70;2.60;;;;;;;24.43;34.74;99588.56;105703;1255;72259;-67
2023/06/01 11:51:58;;;;;;;10.70;2.80;;;;;;;24.14;35.07;99582.60;105935;1255;67037;-68
2023/06/01 11:54:48;;;;;;;9.50;2.60;;;;;;;23.89;36.01;99581.76;105874;1256;71247;-67
2023/06/01 11:57:40;;;;;;;10.60;2.80;;;;;;;23.60;36.48;99586.98;105663;1261;59289;-68
2023/06/01 12:00:30;;;;;;;10.70;2.90;;;;;;;23.50;36.63;99589.79;105877;1260;61840;-68
2023/06/01 12:03:19;;;;;;;9.70;2.60;;;;;;;23.15;37.04;99584.35;105761;1256;72519;-70
2023/06/01 12:06:19;;;;;;;10.00;2.70;;;;;;;22.84;37.89;99581.31;105951;1257;67606;-71
2023/06/01 12:09:08;;;;;;;9.60;2.90;;;;;;;22.59;38.43;99585.77;105986;1260;72433;-69
2023/06/01 12:11:57;;;;;;;9.10;2.70;;;;;;;22.31;38.67;99588.17;105844;1258;59258;-69
2023/06/01 12:14:46;;;;;;;8.50;2.60;;;;;;;21.96;39.48;99588.25;105774;1254;61288;-71
2023/06/01 12:17:50;;;;;;;8.70;2.40;;;;;;;21.84;39.92;99584.71;105781;1253;71385;-69
2023/06/01 12:20:43;;;;;;;11.50;2.80;;;;;;;21.58;40.72;99591.08;105900;1258;69193;-68
2023/06/01 12:23:33;;;;;;;10.60;2.70;;;;;;;21.41;41.07;99589.21;105687;1258;72770;-72
2023/06/01 12:26:21;;;;;;;8.90;2.90;;;;;;;21.22;41.27;99587.09;105680;1256;59304;-68
2023/06/01 12:29:09;;;;;;;9.60;2.50;;;;;;;21.07;41.68;99589.64;105521;1263;60603;-68
2023/06/01 12:31:58;;;;;;;9.60;2.60;;;;;;;20.79;41.88;99595.77;105697;1260;72736;-71
2023/06/01 12:35:06;;;;;;;9.60;3.10;;;;;;;20.72;42.87;99593.03;105528;1259;67238;-69
2023/06/01 12:38:10;;;;;;;10.90;3.00;;;;;;;20.73;43.31;99597.43;105753;1253;71108;-68
2023/06/01 12:41:12;;;;;;;9.30;3.10;;;;;;;20.71;43.29;99592.81;105734;1261;59333;-70
2023/06/01 12:44:00;;;;;;;10.00;3.50;;;;;;;20.72;43.18;99590.36;105634;1254;61030;-66
2023/06/01 12:46:57;;;;;;;10.60;2.80;;;;;;;20.62;43.21;99590.15;105694;1259;71160;-67
2023/06/01 12:50:05;;;;;;;9.50;2.90;;;;;;;20.51;43.67;99588.64;105787;1255;67635;-65
2023/06/01 12:52:53;;;;;;;10.30;3.30;;;;;;;20.35;44.00;99595.16;105694;1260;73183;-69
2023/06/01 12:55:41;;;;;;;10.40;2.90;;;;;;;20.11;44.06;99593.28;105594;1258;59451;-67
2023/06/01 12:58:31;;;;;;;10.20;3.20;;;;;;;19.93;44.32;99589.85;106017;1256;59809;-67
2023/06/01 13:01:19;;;;;;;11.00;2.80;;;;;;;19.84;44.97;99587.84;105845;1259;71910;-66
2023/06/01 13:04:08;;;;;;;8.60;2.90;;;;;;;19.86;45.11;99585.30;105870;1258;69515;-66
2023/06/01 13:06:57;;;;;;;12.90;3.20;;;;;;;19.91;44.98;99584.81;105742;1258;74018;-67
2023/06/01 13:09:46;;;;;;;10.20;3.20;;;;;;;19.84;45.31;99588.60;105729;1258;59163;-66
2023/06/01 13:12:34;;;;;;;10.60;3.30;;;;;;;19.78;45.58;99596.30;105747;1257;59799;-66
2023/06/01 13:15:23;;;;;;;10.40;2.80;;;;;;;19.66;46.00;99588.91;105993;1256;71478;-66
2023/06/01 13:18:13;;;;;;;8.70;3.10;;;;;;;19.69;46.19;99594.27;105698;1256;68224;-67
2023/06/01 13:21:02;;;;;;;9.80;3.20;;;;;;;19.52;46.29;99598.71;105628;1256;72139;-66
2023/06/01 13:23:50;;;;;;;11.80;3.00;;;;;;;19.18;47.01;99599.95;105844;1254;59341;-66
2023/06/01 13:26:40;;;;;;;13.00;3.50;;;;;;;19.01;47.57;99599.41;105845;1255;60742;-66
2023/06/01 13:29:28;;;;;;;11.40;2.90;;;;;;;18.99;47.79;99596.95;105808;1258;71717;-68
2023/06/01 13:32:18;;;;;;;12.50;2.90;;;;;;;19.05;47.86;99593.73;105782;1254;67272;-67
2023/06/01 13:35:08;;;;;;;8.60;2.40;;;;;;;19.04;47.71;99600.25;105840;1256;73075;-68
2023/06/01 13:37:57;;;;;;;12.60;3.10;;;;;;;18.92;47.95;99593.08;105633;1259;59332;-68
2023/06/01 13:40:45;;;;;;;12.90;3.00;;;;;;;18.85;48.31;99594.77;105770;1258;61948;-65
2023/06/01 13:43:34;;;;;;;10.70;3.10;;;;;;;18.81;48.67;99590.56;105866;1255;73792;-68
2023/06/01 13:46:22;;;;;;;9.80;3.10;;;;;;;18.71;48.46;99595.17;105689;1258;69514;-67
2023/06/01 13:49:10;;;;;;;10.70;3.10;;;;;;;18.48;48.90;99590.92;105845;1259;72044;-68
2023/06/01 13:51:59;;;;;;;8.80;2.90;;;;;;;18.42;49.31;99597.52;105910;1258;59277;-67
2023/06/01 13:54:48;;;;;;;10.00;2.80;;;;;;;18.30;49.84;99598.58;105810;1256;60657;-67
2023/06/01 13:57:38;;;;;;;9.70;2.60;;;;;;;18.30;49.94;99600.36;105745;1258;72875;-68
2023/06/01 14:00:27;;;;;;;10.10;2.80;;;;;;;18.20;50.18;99608.59;105715;1258;66404;-69
2023/06/01 14:03:16;;;;;;;10.30;2.80;;;;;;;18.13;50.41;99599.52;105924;1254;73024;-69
2023/06/01 14:06:07;;;;;;;10.40;3.00;;;;;;;18.11;49.86;99597.10;105748;1260;59384;-67
2023/06/01 14:08:56;;;;;;;12.20;2.70;;;;;;;18.15;50.22;99598.89;105897;1259;59269;-64
2023/06/01 14:11:45;;;;;;;11.70;2.90;;;;;;;18.18;50.29;99595.90;105741;1256;71871;-66
2023/06/01 14:14:33;;;;;;;13.40;3.40;;;;;;;18.07;50.61;99595.34;105821;1262;69469;-67
2023/06/01 14:17:21;;;;;;;10.00;2.80;;;;;;;18.00;50.92;99600.45;105817;1256;73422;-68
2023/06/01 14:20:10;;;;;;;9.80;2.80;;;;;;;18.00;50.68;99592.04;105617;1262;59175;-67
2023/06/01 14:23:00;;;;;;;11.70;3.40;;;;;;;17.92;50.90;99584.02;105787;1254;60697;-67
2023/06/01 14:25:48;;;;;;;9.50;2.50;;;;;;;17.88;51.01;99589.30;105631;1256;73808;-68
2023/06/01 14:28:37;;;;;;;9.60;3.00;;;;;;;17.93;51.31;99588.15;105504;1259;67063;-65
2023/06/01 14:31:25;;;;;;;10.50;3.20;;;;;;;17.96;51.35;99590.48;105626;1259;73394;-68
2023/06/01 14:34:13;;;;;;;11.10;2.90;;;;;;;17.86;51.50;99592.91;105374;1256;59233;-68
2023/06/01 14:37:04;;;;;;;10.70;3.10;;;;;;;17.60;52.35;99591.44;105944;1260;59813;-67
2023/06/01 14:39:52;;;;;;;13.10;2.80;;;;;;;17.49;52.61;99590.33;105713;1254;72796;-67
2023/06/01 14:42:40;;;;;;;10.30;3.30;;;;;;;17.55;52.30;99585.52;105559;1258;68582;-69
2023/06/01 14:45:29;;;;;;;10.30;3.20;;;;;;;17.66;52.20;99584.77;105504;1259;74165;-69
2023/06/01 14:48:18;;;;;;;11.20;2.80;;;;;;;17.80;51.98;99584.13;105925;1258;59379;-67
2023/06/01 14:51:08;;;;;;;13.10;3.10;;;;;;;17.84;51.72;99582.19;105612;1254;60755;-66
2023/06/01 14:53:57;;;;;;;8.80;3.00;;;;;;;17.86;51.78;99582.08;105607;1259;72516;-67
2023/06/01 14:56:45;;;;;;;11.80;3.50;;;;;;;17.93;51.55;99583.86;105411;1263;67512;-68
2023/06/01 14:59:36;;;;;;;10.40;2.80;;;;;;;18.02;51.41;99589.98;105492;1270;72960;-66
2023/06/01 15:02:33;;;;;;;12.80;3.60;;;;;;;17.95;51.52;99589.37;105527;1257;59391;-68
2023/06/01 15:05:22;;;;;;;11.50;3.10;;;;;;;17.77;52.22;99603.31;105421;1258;61058;-66
2023/06/01 15:08:11;;;;;;;11.60;2.90;;;;;;;17.67;52.73;99600.25;105401;1257;72865;-69
2023/06/01 15:11:01;;;;;;;10.50;3.10;;;;;;;17.58;52.94;99599.70;105442;1262;68469;-67
2023/06/01 15:13:49;;;;;;;11.50;3.40;;;;;;;17.45;53.04;99603.92;104863;1262;1003178;-66
2023/06/01 15:16:38;;;;;;;13.80;3.40;;;;;;;17.33;53.55;99602.57;105101;1268;59271;-68
2023/06/01 15:19:29;;;;;;;11.30;3.10;;;;;;;17.22;53.69;99600.06;105475;1263;60745;-68
2023/06/01 15:22:18;;;;;;;9.10;2.90;;;;;;;17.09;54.28;99597.15;105460;1262;72995;-67
2023/06/01 15:25:07;;;;;;;11.60;3.30;;;;;;;16.95;54.61;99595.67;105504;1257;67107;-68
2023/06/01 15:27:55;;;;;;;12.50;3.80;;;;;;;16.85;55.39;99587.14;105477;1264;73757;-68
2023/06/01 15:30:44;;;;;;;11.40;3.60;;;;;;;16.79;55.76;99593.88;105574;1263;59308;-69
2023/06/01 15:33:32;;;;;;;11.60;3.00;;;;;;;16.73;55.86;99595.99;105562;1261;60853;-68
2023/06/01 15:36:22;;;;;;;11.10;3.30;;;;;;;16.62;56.18;99594.70;105385;1263;72836;-66
2023/06/01 15:39:10;;;;;;;11.60;3.00;;;;;;;16.56;56.50;99592.49;105386;1262;67781;-67
2023/06/01 15:41:59;;;;;;;14.20;3.30;;;;;;;16.47;57.22;99590.01;105548;1260;74223;-68
2023/06/01 15:44:48;;;;;;;11.10;3.40;;;;;;;16.31;57.63;99598.55;105601;1255;59283;-68
2023/06/01 15:47:38;;;;;;;11.00;3.70;;;;;;;16.17;57.82;99596.33;105761;1261;60536;-69
2023/06/01 15:50:27;;;;;;;11.20;3.20;;;;;;;16.10;58.35;99599.72;105665;1262;71838;-70
2023/06/01 15:53:15;;;;;;;10.60;3.40;;;;;;;16.20;57.96;99597.23;105568;1257;69577;-67
2023/06/01 15:56:04;;;;;;;12.10;4.20;;;;;;;16.17;57.52;99603.44;105823;1269;72959;-69
2023/06/01 15:59:07;;;;;;;12.20;3.40;;;;;;;16.14;57.57;99611.16;105567;1257;59353;-68
2023/06/01 16:01:56;;;;;;;11.60;3.40;;;;;;;16.10;57.99;99613.92;105591;1261;59606;-67
2023/06/01 16:04:45;;;;;;;10.80;3.30;;;;;;;15.97;58.45;99618.48;105787;1255;71509;-68
2023/06/01 16:07:33;;;;;;;11.90;3.80;;;;;;;15.83;58.50;99617.85;105818;1261;68465;-70
2023/06/01 16:10:24;;;;;;;12.40;3.50;;;;;;;15.72;59.28;99619.38;105786;1260;73006;-69
2023/06/01 16:13:12;;;;;;;11.90;4.40;;;;;;;15.58;59.83;99621.38;105728;1261;59251;-68
2023/06/01 16:16:00;;;;;;;12.10;4.10;;;;;;;15.47;59.97;99623.45;106448;1259;59819;-69
2023/06/01 16:18:48;;;;;;;11.20;3.80;;;;;;;15.37;60.25;99629.84;105655;1254;72609;-69
2023/06/01 16:21:37;;;;;;;13.60;4.30;;;;;;;15.27;60.58;99628.66;105462;1261;67041;-68
2023/06/01 16:24:27;;;;;;;12.60;3.70;;;;;;;15.17;61.25;99632.33;105673;1259;73217;-68
2023/06/01 16:27:15;;;;;;;13.80;4.40;;;;;;;15.12;61.60;99634.62;105864;1259;59143;-68
2023/06/01 16:30:04;;;;;;;13.00;4.30;;;;;;;15.04;62.01;99631.35;105843;1260;61951;-68
2023/06/01 16:32:53;;;;;;;14.50;4.10;;;;;;;14.93;62.79;99632.59;105732;1258;72594;-69
2023/06/01 16:35:41;;;;;;;15.60;5.00;;;;;;;14.86;63.14;99636.30;105671;1267;67492;-69
2023/06/01 16:38:31;;;;;;;10.80;4.10;;;;;;;14.67;64.19;99632.59;105810;1261;72397;-68
2023/06/01 16:41:19;;;;;;;15.00;4.00;;;;;;;14.58;64.35;99630.72;105502;1260;59418;-67
2023/06/01 16:44:07;;;;;;;13.30;4.40;;;;;;;14.58;64.60;99627.92;105905;1258;61635;-68
2023/06/01 16:46:55;;;;;;;12.60;4.30;;;;;;;14.56;64.75;99631.09;105553;1260;73691;-68
2023/06/01 16:49:44;;;;;;;9.10;3.90;;;;;;;14.54;65.39;99632.41;105517;1257;67215;-67
2023/06/01 16:52:32;;;;;;;13.00;4.40;;;;;;;14.44;65.87;99630.74;105367;1264;73145;-68
2023/06/01 16:55:21;;;;;;;13.20;4.60;;;;;;;14.37;66.35;99632.55;105602;1262;59328;-68
2023/06/01 16:58:10;;;;;;;12.40;4.30;;;;;;;14.26;67.05;99637.55;105604;1260;59415;-69
2023/06/01 17:00:58;;;;;;;13.80;4.60;;;;;;;14.16;67.82;99634.23;105611;1262;71967;-69
2023/06/01 17:03:48;;;;;;;10.30;3.70;;;;;;;14.08;68.30;99638.52;105442;1261;66979;-68